sensor_id;sensor_type;location;lat;lon;timestamp;P1;durP1;ratioP1;P2;durP2;ratioP2
6825;SDS011;3451;52.476;13.316;2023-05-07T00:02:14;15.87;;;11.87;;
6825;SDS011;3451;52.476;13.316;2023-05-07T00:04:41;18.17;;;12.60;;
6825;SDS011;3451;52.476;13.316;2023-05-07T00:07:07;17.10;;;12.67;;
6825;SDS011;3451;52.476;13.316;2023-05-07T00:09:34;15.27;;;12.10;;
6825;SDS011;3451;52.476;13.316;2023-05-07T00:12:00;15.77;;;11.57;;
6825;SDS011;3451;52.476;13.316;2023-05-07T00:14:27;16.03;;;11.97;;
6825;SDS011;3451;52.476;13.316;2023-05-07T00:16:53;14.27;;;11.47;;
6825;SDS011;3451;52.476;13.316;2023-05-07T00:19:19;16.00;;;11.27;;
6825;SDS011;3451;52.476;13.316;2023-05-07T00:21:46;15.10;;;11.97;;
6825;SDS011;3451;52.476;13.316;2023-05-07T00:24:12;16.70;;;11.03;;
6825;SDS011;3451;52.476;13.316;2023-05-07T00:26:39;14.30;;;10.70;;
6825;SDS011;3451;52.476;13.316;2023-05-07T00:29:05;16.70;;;11.57;;
6825;SDS011;3451;52.476;13.316;2023-05-07T00:31:31;17.83;;;11.87;;
6825;SDS011;3451;52.476;13.316;2023-05-07T00:33:58;15.27;;;11.03;;
6825;SDS011;3451;52.476;13.316;2023-05-07T00:36:24;13.47;;;10.80;;
6825;SDS011;3451;52.476;13.316;2023-05-07T00:38:53;15.63;;;10.23;;
6825;SDS011;3451;52.476;13.316;2023-05-07T00:41:20;16.27;;;10.53;;
6825;SDS011;3451;52.476;13.316;2023-05-07T00:43:46;12.43;;;10.17;;
6825;SDS011;3451;52.476;13.316;2023-05-07T00:46:13;14.23;;;10.20;;
6825;SDS011;3451;52.476;13.316;2023-05-07T00:48:39;15.13;;;10.17;;
6825;SDS011;3451;52.476;13.316;2023-05-07T00:51:06;13.20;;;10.30;;
6825;SDS011;3451;52.476;13.316;2023-05-07T00:53:33;14.60;;;9.50;;
6825;SDS011;3451;52.476;13.316;2023-05-07T00:55:59;15.73;;;10.57;;
6825;SDS011;3451;52.476;13.316;2023-05-07T00:58:27;14.53;;;9.73;;
6825;SDS011;3451;52.476;13.316;2023-05-07T01:00:53;12.77;;;9.40;;
6825;SDS011;3451;52.476;13.316;2023-05-07T01:03:20;13.97;;;9.80;;
6825;SDS011;3451;52.476;13.316;2023-05-07T01:05:47;13.10;;;10.00;;
6825;SDS011;3451;52.476;13.316;2023-05-07T01:08:14;13.53;;;9.50;;
6825;SDS011;3451;52.476;13.316;2023-05-07T01:10:41;12.57;;;10.03;;
6825;SDS011;3451;52.476;13.316;2023-05-07T01:13:12;14.47;;;9.70;;
6825;SDS011;3451;52.476;13.316;2023-05-07T01:15:39;14.60;;;9.87;;
6825;SDS011;3451;52.476;13.316;2023-05-07T01:18:07;12.93;;;10.37;;
6825;SDS011;3451;52.476;13.316;2023-05-07T01:20:33;16.30;;;10.67;;
6825;SDS011;3451;52.476;13.316;2023-05-07T01:23:00;13.40;;;9.93;;
6825;SDS011;3451;52.476;13.316;2023-05-07T01:25:26;14.80;;;10.63;;
6825;SDS011;3451;52.476;13.316;2023-05-07T01:27:53;14.30;;;11.23;;
6825;SDS011;3451;52.476;13.316;2023-05-07T01:30:20;14.50;;;10.27;;
6825;SDS011;3451;52.476;13.316;2023-05-07T01:32:51;12.87;;;9.87;;
6825;SDS011;3451;52.476;13.316;2023-05-07T01:35:18;13.17;;;10.03;;
6825;SDS011;3451;52.476;13.316;2023-05-07T01:37:46;13.20;;;10.07;;
6825;SDS011;3451;52.476;13.316;2023-05-07T01:40:12;12.87;;;10.30;;
6825;SDS011;3451;52.476;13.316;2023-05-07T01:42:39;14.13;;;10.40;;
6825;SDS011;3451;52.476;13.316;2023-05-07T01:45:06;14.70;;;10.80;;
6825;SDS011;3451;52.476;13.316;2023-05-07T01:47:32;12.07;;;10.20;;
6825;SDS011;3451;52.476;13.316;2023-05-07T01:49:59;15.37;;;10.20;;
6825;SDS011;3451;52.476;13.316;2023-05-07T01:52:25;14.50;;;10.97;;
6825;SDS011;3451;52.476;13.316;2023-05-07T01:54:53;11.93;;;9.70;;
6825;SDS011;3451;52.476;13.316;2023-05-07T01:57:19;11.43;;;9.63;;
6825;SDS011;3451;52.476;13.316;2023-05-07T01:59:46;12.67;;;9.80;;
6825;SDS011;3451;52.476;13.316;2023-05-07T02:02:12;14.37;;;9.93;;
6825;SDS011;3451;52.476;13.316;2023-05-07T02:04:38;13.77;;;9.17;;
6825;SDS011;3451;52.476;13.316;2023-05-07T02:07:05;11.53;;;9.23;;
6825;SDS011;3451;52.476;13.316;2023-05-07T02:09:31;13.60;;;9.80;;
6825;SDS011;3451;52.476;13.316;2023-05-07T02:11:57;11.67;;;9.03;;
6825;SDS011;3451;52.476;13.316;2023-05-07T02:14:24;14.37;;;9.50;;
6825;SDS011;3451;52.476;13.316;2023-05-07T02:16:50;12.03;;;9.47;;
6825;SDS011;3451;52.476;13.316;2023-05-07T02:19:17;12.50;;;8.93;;
6825;SDS011;3451;52.476;13.316;2023-05-07T02:21:44;14.03;;;10.10;;
6825;SDS011;3451;52.476;13.316;2023-05-07T02:24:10;12.10;;;9.33;;
6825;SDS011;3451;52.476;13.316;2023-05-07T02:26:37;12.90;;;9.77;;
6825;SDS011;3451;52.476;13.316;2023-05-07T02:29:03;13.97;;;9.87;;
6825;SDS011;3451;52.476;13.316;2023-05-07T02:31:29;15.43;;;9.97;;
6825;SDS011;3451;52.476;13.316;2023-05-07T02:33:56;12.47;;;9.77;;
6825;SDS011;3451;52.476;13.316;2023-05-07T02:36:22;14.33;;;10.77;;
6825;SDS011;3451;52.476;13.316;2023-05-07T02:38:48;13.40;;;9.90;;
6825;SDS011;3451;52.476;13.316;2023-05-07T02:41:14;12.47;;;10.13;;
6825;SDS011;3451;52.476;13.316;2023-05-07T02:43:41;13.27;;;9.97;;
6825;SDS011;3451;52.476;13.316;2023-05-07T02:46:07;13.80;;;10.30;;
6825;SDS011;3451;52.476;13.316;2023-05-07T02:48:34;12.13;;;9.93;;
6825;SDS011;3451;52.476;13.316;2023-05-07T02:51:01;14.33;;;9.70;;
6825;SDS011;3451;52.476;13.316;2023-05-07T02:53:27;13.10;;;9.90;;
6825;SDS011;3451;52.476;13.316;2023-05-07T02:55:54;13.83;;;9.93;;
6825;SDS011;3451;52.476;13.316;2023-05-07T02:58:20;16.03;;;10.37;;
6825;SDS011;3451;52.476;13.316;2023-05-07T03:00:46;13.93;;;10.57;;
6825;SDS011;3451;52.476;13.316;2023-05-07T03:03:13;15.03;;;9.80;;
6825;SDS011;3451;52.476;13.316;2023-05-07T03:05:40;13.37;;;10.07;;
6825;SDS011;3451;52.476;13.316;2023-05-07T03:08:06;13.83;;;9.53;;
6825;SDS011;3451;52.476;13.316;2023-05-07T03:10:32;13.40;;;9.70;;
6825;SDS011;3451;52.476;13.316;2023-05-07T03:12:59;14.87;;;9.73;;
6825;SDS011;3451;52.476;13.316;2023-05-07T03:15:25;13.90;;;10.07;;
6825;SDS011;3451;52.476;13.316;2023-05-07T03:17:52;13.93;;;10.30;;
6825;SDS011;3451;52.476;13.316;2023-05-07T03:20:18;10.97;;;9.10;;
6825;SDS011;3451;52.476;13.316;2023-05-07T03:22:44;13.80;;;8.87;;
6825;SDS011;3451;52.476;13.316;2023-05-07T03:25:11;14.83;;;9.40;;
6825;SDS011;3451;52.476;13.316;2023-05-07T03:27:37;12.07;;;9.33;;
6825;SDS011;3451;52.476;13.316;2023-05-07T03:30:04;11.53;;;9.13;;
6825;SDS011;3451;52.476;13.316;2023-05-07T03:32:30;13.77;;;9.60;;
6825;SDS011;3451;52.476;13.316;2023-05-07T03:34:57;12.87;;;9.40;;
6825;SDS011;3451;52.476;13.316;2023-05-07T03:37:23;11.27;;;9.23;;
6825;SDS011;3451;52.476;13.316;2023-05-07T03:39:49;13.07;;;9.43;;
6825;SDS011;3451;52.476;13.316;2023-05-07T03:42:15;12.03;;;8.70;;
6825;SDS011;3451;52.476;13.316;2023-05-07T03:44:42;12.57;;;9.27;;
6825;SDS011;3451;52.476;13.316;2023-05-07T03:47:08;10.93;;;8.93;;
6825;SDS011;3451;52.476;13.316;2023-05-07T03:49:36;14.30;;;9.03;;
6825;SDS011;3451;52.476;13.316;2023-05-07T03:52:02;15.00;;;9.83;;
6825;SDS011;3451;52.476;13.316;2023-05-07T03:54:29;13.23;;;9.23;;
6825;SDS011;3451;52.476;13.316;2023-05-07T03:56:56;10.70;;;8.17;;
6825;SDS011;3451;52.476;13.316;2023-05-07T03:59:22;10.47;;;8.30;;
6825;SDS011;3451;52.476;13.316;2023-05-07T04:01:48;13.13;;;9.30;;
6825;SDS011;3451;52.476;13.316;2023-05-07T04:04:15;10.50;;;8.77;;
6825;SDS011;3451;52.476;13.316;2023-05-07T04:06:42;12.00;;;9.23;;
6825;SDS011;3451;52.476;13.316;2023-05-07T04:09:08;14.77;;;9.57;;
6825;SDS011;3451;52.476;13.316;2023-05-07T04:11:35;11.60;;;8.63;;
6825;SDS011;3451;52.476;13.316;2023-05-07T04:14:01;13.70;;;9.20;;
6825;SDS011;3451;52.476;13.316;2023-05-07T04:16:28;10.53;;;8.60;;
6825;SDS011;3451;52.476;13.316;2023-05-07T04:18:54;15.20;;;8.93;;
6825;SDS011;3451;52.476;13.316;2023-05-07T04:21:21;12.60;;;9.33;;
6825;SDS011;3451;52.476;13.316;2023-05-07T04:23:47;13.50;;;9.00;;
6825;SDS011;3451;52.476;13.316;2023-05-07T04:26:14;11.97;;;9.40;;
6825;SDS011;3451;52.476;13.316;2023-05-07T04:28:41;11.53;;;8.97;;
6825;SDS011;3451;52.476;13.316;2023-05-07T04:31:07;13.40;;;9.33;;
6825;SDS011;3451;52.476;13.316;2023-05-07T04:33:34;10.40;;;8.53;;
6825;SDS011;3451;52.476;13.316;2023-05-07T04:36:01;11.90;;;8.57;;
6825;SDS011;3451;52.476;13.316;2023-05-07T04:38:29;13.17;;;9.07;;
6825;SDS011;3451;52.476;13.316;2023-05-07T04:40:56;12.73;;;8.37;;
6825;SDS011;3451;52.476;13.316;2023-05-07T04:43:23;13.53;;;9.00;;
6825;SDS011;3451;52.476;13.316;2023-05-07T04:45:50;12.40;;;8.37;;
6825;SDS011;3451;52.476;13.316;2023-05-07T04:48:16;11.70;;;8.50;;
6825;SDS011;3451;52.476;13.316;2023-05-07T04:50:48;12.00;;;8.80;;
6825;SDS011;3451;52.476;13.316;2023-05-07T04:53:15;13.53;;;8.63;;
6825;SDS011;3451;52.476;13.316;2023-05-07T04:55:41;10.50;;;8.47;;
6825;SDS011;3451;52.476;13.316;2023-05-07T04:58:08;11.13;;;8.13;;
6825;SDS011;3451;52.476;13.316;2023-05-07T05:00:34;11.77;;;8.60;;
6825;SDS011;3451;52.476;13.316;2023-05-07T05:03:01;10.93;;;8.07;;
6825;SDS011;3451;52.476;13.316;2023-05-07T05:05:27;9.63;;;7.53;;
6825;SDS011;3451;52.476;13.316;2023-05-07T05:07:53;10.23;;;7.70;;
6825;SDS011;3451;52.476;13.316;2023-05-07T05:10:20;11.27;;;7.90;;
6825;SDS011;3451;52.476;13.316;2023-05-07T05:12:49;9.37;;;7.70;;
6825;SDS011;3451;52.476;13.316;2023-05-07T05:15:16;11.03;;;6.97;;
6825;SDS011;3451;52.476;13.316;2023-05-07T05:17:42;9.23;;;7.33;;
6825;SDS011;3451;52.476;13.316;2023-05-07T05:20:08;9.90;;;7.43;;
6825;SDS011;3451;52.476;13.316;2023-05-07T05:22:37;10.83;;;6.97;;
6825;SDS011;3451;52.476;13.316;2023-05-07T05:25:03;9.10;;;7.20;;
6825;SDS011;3451;52.476;13.316;2023-05-07T05:27:30;8.83;;;6.87;;
6825;SDS011;3451;52.476;13.316;2023-05-07T05:29:56;9.47;;;7.20;;
6825;SDS011;3451;52.476;13.316;2023-05-07T05:32:22;8.20;;;6.63;;
6825;SDS011;3451;52.476;13.316;2023-05-07T05:34:49;11.20;;;7.43;;
6825;SDS011;3451;52.476;13.316;2023-05-07T05:37:15;10.10;;;6.90;;
6825;SDS011;3451;52.476;13.316;2023-05-07T05:39:41;9.00;;;7.20;;
6825;SDS011;3451;52.476;13.316;2023-05-07T05:42:08;8.57;;;6.90;;
6825;SDS011;3451;52.476;13.316;2023-05-07T05:44:34;8.63;;;6.77;;
6825;SDS011;3451;52.476;13.316;2023-05-07T05:47:01;11.40;;;7.43;;
6825;SDS011;3451;52.476;13.316;2023-05-07T05:49:27;8.93;;;7.40;;
6825;SDS011;3451;52.476;13.316;2023-05-07T05:51:53;12.93;;;7.10;;
6825;SDS011;3451;52.476;13.316;2023-05-07T05:54:20;8.27;;;6.67;;
6825;SDS011;3451;52.476;13.316;2023-05-07T05:56:46;7.77;;;6.43;;
6825;SDS011;3451;52.476;13.316;2023-05-07T05:59:12;8.60;;;6.83;;
6825;SDS011;3451;52.476;13.316;2023-05-07T06:01:39;11.50;;;7.30;;
6825;SDS011;3451;52.476;13.316;2023-05-07T06:04:05;8.57;;;7.03;;
6825;SDS011;3451;52.476;13.316;2023-05-07T06:06:31;11.53;;;7.60;;
6825;SDS011;3451;52.476;13.316;2023-05-07T06:08:58;8.43;;;7.17;;
6825;SDS011;3451;52.476;13.316;2023-05-07T06:11:24;12.30;;;7.30;;
6825;SDS011;3451;52.476;13.316;2023-05-07T06:13:51;9.83;;;7.27;;
6825;SDS011;3451;52.476;13.316;2023-05-07T06:16:17;7.53;;;6.40;;
6825;SDS011;3451;52.476;13.316;2023-05-07T06:18:44;9.30;;;6.77;;
6825;SDS011;3451;52.476;13.316;2023-05-07T06:21:13;11.03;;;6.77;;
6825;SDS011;3451;52.476;13.316;2023-05-07T06:23:39;10.77;;;6.43;;
6825;SDS011;3451;52.476;13.316;2023-05-07T06:26:07;8.63;;;6.30;;
6825;SDS011;3451;52.476;13.316;2023-05-07T06:28:33;9.30;;;6.13;;
6825;SDS011;3451;52.476;13.316;2023-05-07T06:31:14;9.87;;;6.87;;
6825;SDS011;3451;52.476;13.316;2023-05-07T06:33:42;8.47;;;6.40;;
6825;SDS011;3451;52.476;13.316;2023-05-07T06:36:09;9.97;;;6.67;;
6825;SDS011;3451;52.476;13.316;2023-05-07T06:38:35;7.17;;;5.93;;
6825;SDS011;3451;52.476;13.316;2023-05-07T06:41:01;9.83;;;6.57;;
6825;SDS011;3451;52.476;13.316;2023-05-07T06:43:28;7.80;;;6.23;;
6825;SDS011;3451;52.476;13.316;2023-05-07T06:45:54;10.63;;;7.77;;
6825;SDS011;3451;52.476;13.316;2023-05-07T06:48:21;9.57;;;6.43;;
6825;SDS011;3451;52.476;13.316;2023-05-07T06:50:47;11.07;;;7.60;;
6825;SDS011;3451;52.476;13.316;2023-05-07T06:53:14;9.27;;;7.00;;
6825;SDS011;3451;52.476;13.316;2023-05-07T06:55:40;10.87;;;7.03;;
6825;SDS011;3451;52.476;13.316;2023-05-07T06:58:07;9.07;;;6.80;;
6825;SDS011;3451;52.476;13.316;2023-05-07T07:00:33;9.97;;;6.63;;
6825;SDS011;3451;52.476;13.316;2023-05-07T07:03:01;9.80;;;6.97;;
6825;SDS011;3451;52.476;13.316;2023-05-07T07:05:27;10.13;;;6.57;;
6825;SDS011;3451;52.476;13.316;2023-05-07T07:07:53;7.50;;;5.83;;
6825;SDS011;3451;52.476;13.316;2023-05-07T07:10:20;7.73;;;6.27;;
6825;SDS011;3451;52.476;13.316;2023-05-07T07:12:46;8.50;;;6.20;;
6825;SDS011;3451;52.476;13.316;2023-05-07T07:15:13;8.40;;;6.20;;
6825;SDS011;3451;52.476;13.316;2023-05-07T07:17:39;10.60;;;6.10;;
6825;SDS011;3451;52.476;13.316;2023-05-07T07:20:06;9.53;;;5.97;;
6825;SDS011;3451;52.476;13.316;2023-05-07T07:22:32;7.70;;;5.53;;
6825;SDS011;3451;52.476;13.316;2023-05-07T07:24:59;9.67;;;5.20;;
6825;SDS011;3451;52.476;13.316;2023-05-07T07:27:25;5.27;;;4.77;;
6825;SDS011;3451;52.476;13.316;2023-05-07T07:29:51;7.17;;;4.70;;
6825;SDS011;3451;52.476;13.316;2023-05-07T07:32:18;5.40;;;4.17;;
6825;SDS011;3451;52.476;13.316;2023-05-07T07:34:44;6.60;;;4.60;;
6825;SDS011;3451;52.476;13.316;2023-05-07T07:37:10;6.07;;;4.30;;
6825;SDS011;3451;52.476;13.316;2023-05-07T07:39:37;4.93;;;3.90;;
6825;SDS011;3451;52.476;13.316;2023-05-07T07:42:07;5.57;;;3.50;;
6825;SDS011;3451;52.476;13.316;2023-05-07T07:44:33;5.50;;;3.20;;
6825;SDS011;3451;52.476;13.316;2023-05-07T07:46:59;3.72;;;3.33;;
6825;SDS011;3451;52.476;13.316;2023-05-07T07:49:26;3.58;;;3.22;;
6825;SDS011;3451;52.476;13.316;2023-05-07T07:51:52;3.67;;;2.80;;
6825;SDS011;3451;52.476;13.316;2023-05-07T07:54:19;6.68;;;3.20;;
6825;SDS011;3451;52.476;13.316;2023-05-07T07:56:45;3.50;;;2.80;;
6825;SDS011;3451;52.476;13.316;2023-05-07T07:59:12;5.30;;;3.40;;
6825;SDS011;3451;52.476;13.316;2023-05-07T08:01:39;3.30;;;3.00;;
6825;SDS011;3451;52.476;13.316;2023-05-07T08:04:06;6.97;;;3.20;;
6825;SDS011;3451;52.476;13.316;2023-05-07T08:06:32;3.10;;;2.80;;
6825;SDS011;3451;52.476;13.316;2023-05-07T08:08:58;3.83;;;3.20;;
6825;SDS011;3451;52.476;13.316;2023-05-07T08:11:25;5.83;;;3.10;;
6825;SDS011;3451;52.476;13.316;2023-05-07T08:13:52;3.60;;;3.23;;
6825;SDS011;3451;52.476;13.316;2023-05-07T08:16:18;4.53;;;3.53;;
6825;SDS011;3451;52.476;13.316;2023-05-07T08:18:46;4.00;;;3.43;;
6825;SDS011;3451;52.476;13.316;2023-05-07T08:21:12;4.70;;;3.80;;
6825;SDS011;3451;52.476;13.316;2023-05-07T08:23:38;4.43;;;3.67;;
6825;SDS011;3451;52.476;13.316;2023-05-07T08:26:04;5.60;;;3.83;;
6825;SDS011;3451;52.476;13.316;2023-05-07T08:28:31;3.97;;;3.37;;
6825;SDS011;3451;52.476;13.316;2023-05-07T08:30:57;4.10;;;3.03;;
6825;SDS011;3451;52.476;13.316;2023-05-07T08:33:26;5.07;;;3.43;;
6825;SDS011;3451;52.476;13.316;2023-05-07T08:35:53;5.30;;;3.63;;
6825;SDS011;3451;52.476;13.316;2023-05-07T08:38:19;4.00;;;3.30;;
6825;SDS011;3451;52.476;13.316;2023-05-07T08:40:46;5.23;;;3.50;;
6825;SDS011;3451;52.476;13.316;2023-05-07T08:43:13;5.27;;;3.20;;
6825;SDS011;3451;52.476;13.316;2023-05-07T08:45:40;3.70;;;2.77;;
6825;SDS011;3451;52.476;13.316;2023-05-07T08:48:08;3.13;;;2.83;;
6825;SDS011;3451;52.476;13.316;2023-05-07T08:50:35;11.93;;;7.63;;
6825;SDS011;3451;52.476;13.316;2023-05-07T08:53:04;6.33;;;4.03;;
6825;SDS011;3451;52.476;13.316;2023-05-07T08:55:31;3.80;;;3.00;;
6825;SDS011;3451;52.476;13.316;2023-05-07T08:57:59;4.60;;;2.90;;
6825;SDS011;3451;52.476;13.316;2023-05-07T09:00:25;4.47;;;2.97;;
6825;SDS011;3451;52.476;13.316;2023-05-07T09:02:54;3.93;;;2.73;;
6825;SDS011;3451;52.476;13.316;2023-05-07T09:05:21;4.83;;;2.87;;
6825;SDS011;3451;52.476;13.316;2023-05-07T09:07:47;3.90;;;3.00;;
6825;SDS011;3451;52.476;13.316;2023-05-07T09:10:14;3.70;;;2.60;;
6825;SDS011;3451;52.476;13.316;2023-05-07T09:12:40;3.60;;;3.10;;
6825;SDS011;3451;52.476;13.316;2023-05-07T09:15:07;5.50;;;3.17;;
6825;SDS011;3451;52.476;13.316;2023-05-07T09:17:33;5.37;;;3.10;;
6825;SDS011;3451;52.476;13.316;2023-05-07T09:20:03;3.30;;;2.57;;
6825;SDS011;3451;52.476;13.316;2023-05-07T09:22:32;4.23;;;2.73;;
6825;SDS011;3451;52.476;13.316;2023-05-07T09:24:59;3.20;;;2.70;;
6825;SDS011;3451;52.476;13.316;2023-05-07T09:27:25;3.93;;;2.73;;
6825;SDS011;3451;52.476;13.316;2023-05-07T09:29:52;4.90;;;2.70;;
6825;SDS011;3451;52.476;13.316;2023-05-07T09:32:18;3.67;;;2.40;;
6825;SDS011;3451;52.476;13.316;2023-05-07T09:34:44;4.43;;;2.63;;
6825;SDS011;3451;52.476;13.316;2023-05-07T09:37:12;4.30;;;2.90;;
6825;SDS011;3451;52.476;13.316;2023-05-07T09:39:42;3.30;;;2.57;;
6825;SDS011;3451;52.476;13.316;2023-05-07T09:42:08;3.23;;;2.40;;
6825;SDS011;3451;52.476;13.316;2023-05-07T09:44:35;3.90;;;2.67;;
6825;SDS011;3451;52.476;13.316;2023-05-07T09:47:01;4.00;;;2.70;;
6825;SDS011;3451;52.476;13.316;2023-05-07T09:49:30;5.03;;;3.07;;
6825;SDS011;3451;52.476;13.316;2023-05-07T09:51:59;6.30;;;2.90;;
6825;SDS011;3451;52.476;13.316;2023-05-07T09:54:26;4.50;;;2.93;;
6825;SDS011;3451;52.476;13.316;2023-05-07T09:56:55;5.07;;;3.00;;
6825;SDS011;3451;52.476;13.316;2023-05-07T09:59:21;5.67;;;3.17;;
6825;SDS011;3451;52.476;13.316;2023-05-07T10:01:48;3.57;;;2.77;;
6825;SDS011;3451;52.476;13.316;2023-05-07T10:04:14;4.50;;;2.80;;
6825;SDS011;3451;52.476;13.316;2023-05-07T10:06:41;5.60;;;2.80;;
6825;SDS011;3451;52.476;13.316;2023-05-07T10:09:08;3.17;;;2.37;;
6825;SDS011;3451;52.476;13.316;2023-05-07T10:11:35;4.47;;;2.80;;
6825;SDS011;3451;52.476;13.316;2023-05-07T10:14:02;4.03;;;2.80;;
6825;SDS011;3451;52.476;13.316;2023-05-07T10:16:31;3.47;;;2.57;;
6825;SDS011;3451;52.476;13.316;2023-05-07T10:18:58;2.77;;;2.20;;
6825;SDS011;3451;52.476;13.316;2023-05-07T10:21:26;2.77;;;2.10;;
6825;SDS011;3451;52.476;13.316;2023-05-07T10:23:57;3.20;;;2.10;;
6825;SDS011;3451;52.476;13.316;2023-05-07T10:26:23;3.67;;;2.53;;
6825;SDS011;3451;52.476;13.316;2023-05-07T10:28:53;3.10;;;2.27;;
6825;SDS011;3451;52.476;13.316;2023-05-07T10:31:37;4.70;;;2.30;;
6825;SDS011;3451;52.476;13.316;2023-05-07T10:34:09;4.47;;;1.90;;
6825;SDS011;3451;52.476;13.316;2023-05-07T10:36:37;2.17;;;1.73;;
6825;SDS011;3451;52.476;13.316;2023-05-07T10:39:04;6.00;;;2.43;;
6825;SDS011;3451;52.476;13.316;2023-05-07T10:41:31;5.93;;;1.87;;
6825;SDS011;3451;52.476;13.316;2023-05-07T10:43:57;4.17;;;1.83;;
6825;SDS011;3451;52.476;13.316;2023-05-07T10:46:27;2.43;;;1.80;;
6825;SDS011;3451;52.476;13.316;2023-05-07T10:51:27;3.97;;;1.90;;
6825;SDS011;3451;52.476;13.316;2023-05-07T10:56:38;4.47;;;2.07;;
6825;SDS011;3451;52.476;13.316;2023-05-07T11:01:52;2.63;;;1.83;;
6825;SDS011;3451;52.476;13.316;2023-05-07T11:04:18;2.63;;;2.10;;
6825;SDS011;3451;52.476;13.316;2023-05-07T11:07:10;2.37;;;2.07;;
6825;SDS011;3451;52.476;13.316;2023-05-07T11:15:10;3.87;;;2.00;;
6825;SDS011;3451;52.476;13.316;2023-05-07T11:17:53;2.60;;;1.97;;
6825;SDS011;3451;52.476;13.316;2023-05-07T11:20:20;2.30;;;1.90;;
6825;SDS011;3451;52.476;13.316;2023-05-07T11:22:46;3.47;;;1.97;;
6825;SDS011;3451;52.476;13.316;2023-05-07T11:25:19;2.77;;;2.17;;
6825;SDS011;3451;52.476;13.316;2023-05-07T11:27:45;2.13;;;1.93;;
6825;SDS011;3451;52.476;13.316;2023-05-07T11:30:18;2.10;;;1.80;;
6825;SDS011;3451;52.476;13.316;2023-05-07T11:32:47;3.23;;;2.10;;
6825;SDS011;3451;52.476;13.316;2023-05-07T11:35:13;4.07;;;1.90;;
6825;SDS011;3451;52.476;13.316;2023-05-07T11:37:41;3.43;;;1.90;;
6825;SDS011;3451;52.476;13.316;2023-05-07T11:40:08;2.87;;;2.17;;
6825;SDS011;3451;52.476;13.316;2023-05-07T11:42:37;3.47;;;2.10;;
6825;SDS011;3451;52.476;13.316;2023-05-07T11:45:05;7.53;;;2.80;;
6825;SDS011;3451;52.476;13.316;2023-05-07T11:47:32;3.77;;;2.20;;
6825;SDS011;3451;52.476;13.316;2023-05-07T11:50:02;2.83;;;1.90;;
6825;SDS011;3451;52.476;13.316;2023-05-07T11:52:29;4.03;;;2.13;;
6825;SDS011;3451;52.476;13.316;2023-05-07T11:54:56;3.90;;;2.23;;
6825;SDS011;3451;52.476;13.316;2023-05-07T11:57:23;5.20;;;2.07;;
6825;SDS011;3451;52.476;13.316;2023-05-07T11:59:56;2.37;;;1.80;;
6825;SDS011;3451;52.476;13.316;2023-05-07T12:02:23;3.33;;;2.17;;
6825;SDS011;3451;52.476;13.316;2023-05-07T12:04:54;3.03;;;2.07;;
6825;SDS011;3451;52.476;13.316;2023-05-07T12:07:21;2.60;;;1.67;;
6825;SDS011;3451;52.476;13.316;2023-05-07T12:09:47;3.50;;;2.20;;
6825;SDS011;3451;52.476;13.316;2023-05-07T12:12:14;6.13;;;2.30;;
6825;SDS011;3451;52.476;13.316;2023-05-07T12:14:42;3.50;;;1.60;;
6825;SDS011;3451;52.476;13.316;2023-05-07T12:17:09;4.23;;;1.80;;
6825;SDS011;3451;52.476;13.316;2023-05-07T12:19:36;4.13;;;1.90;;
6825;SDS011;3451;52.476;13.316;2023-05-07T12:22:03;2.70;;;1.80;;
6825;SDS011;3451;52.476;13.316;2023-05-07T12:24:41;4.37;;;1.80;;
6825;SDS011;3451;52.476;13.316;2023-05-07T12:27:07;2.40;;;1.60;;
6825;SDS011;3451;52.476;13.316;2023-05-07T12:29:35;2.60;;;1.90;;
6825;SDS011;3451;52.476;13.316;2023-05-07T12:32:01;3.53;;;1.80;;
6825;SDS011;3451;52.476;13.316;2023-05-07T12:34:31;3.10;;;1.70;;
6825;SDS011;3451;52.476;13.316;2023-05-07T12:36:57;3.07;;;1.90;;
6825;SDS011;3451;52.476;13.316;2023-05-07T12:39:23;3.23;;;1.50;;
6825;SDS011;3451;52.476;13.316;2023-05-07T12:41:53;3.13;;;1.70;;
6825;SDS011;3451;52.476;13.316;2023-05-07T12:44:23;3.80;;;2.20;;
6825;SDS011;3451;52.476;13.316;2023-05-07T12:46:50;2.50;;;1.77;;
6825;SDS011;3451;52.476;13.316;2023-05-07T12:49:17;7.03;;;1.97;;
6825;SDS011;3451;52.476;13.316;2023-05-07T12:51:44;4.37;;;1.67;;
6825;SDS011;3451;52.476;13.316;2023-05-07T12:54:12;4.23;;;1.50;;
6825;SDS011;3451;52.476;13.316;2023-05-07T12:56:39;2.20;;;1.70;;
6825;SDS011;3451;52.476;13.316;2023-05-07T12:59:05;2.87;;;1.87;;
6825;SDS011;3451;52.476;13.316;2023-05-07T13:01:33;2.70;;;1.47;;
6825;SDS011;3451;52.476;13.316;2023-05-07T13:04:00;2.43;;;1.80;;
6825;SDS011;3451;52.476;13.316;2023-05-07T13:06:27;5.57;;;1.70;;
6825;SDS011;3451;52.476;13.316;2023-05-07T13:08:53;2.20;;;1.80;;
6825;SDS011;3451;52.476;13.316;2023-05-07T13:11:19;1.80;;;1.57;;
6825;SDS011;3451;52.476;13.316;2023-05-07T13:13:46;3.10;;;1.77;;
6825;SDS011;3451;52.476;13.316;2023-05-07T13:16:12;2.00;;;1.50;;
6825;SDS011;3451;52.476;13.316;2023-05-07T13:18:39;3.07;;;1.80;;
6825;SDS011;3451;52.476;13.316;2023-05-07T13:21:06;2.03;;;1.50;;
6825;SDS011;3451;52.476;13.316;2023-05-07T13:23:33;3.87;;;1.70;;
6825;SDS011;3451;52.476;13.316;2023-05-07T13:25:59;2.67;;;1.50;;
6825;SDS011;3451;52.476;13.316;2023-05-07T13:28:33;2.03;;;1.73;;
6825;SDS011;3451;52.476;13.316;2023-05-07T13:31:00;3.30;;;1.73;;
6825;SDS011;3451;52.476;13.316;2023-05-07T13:33:26;1.90;;;1.57;;
6825;SDS011;3451;52.476;13.316;2023-05-07T13:35:52;2.10;;;1.60;;
6825;SDS011;3451;52.476;13.316;2023-05-07T13:38:19;3.10;;;1.50;;
6825;SDS011;3451;52.476;13.316;2023-05-07T13:40:45;5.20;;;1.50;;
6825;SDS011;3451;52.476;13.316;2023-05-07T13:43:11;2.60;;;1.50;;
6825;SDS011;3451;52.476;13.316;2023-05-07T13:45:37;2.00;;;1.50;;
6825;SDS011;3451;52.476;13.316;2023-05-07T13:48:04;1.60;;;1.23;;
6825;SDS011;3451;52.476;13.316;2023-05-07T13:50:31;2.47;;;1.53;;
6825;SDS011;3451;52.476;13.316;2023-05-07T13:52:57;3.10;;;1.40;;
6825;SDS011;3451;52.476;13.316;2023-05-07T13:55:23;2.00;;;1.40;;
6825;SDS011;3451;52.476;13.316;2023-05-07T13:57:56;4.00;;;1.57;;
6825;SDS011;3451;52.476;13.316;2023-05-07T14:00:24;2.83;;;1.70;;
6825;SDS011;3451;52.476;13.316;2023-05-07T14:02:50;2.40;;;1.60;;
6825;SDS011;3451;52.476;13.316;2023-05-07T14:05:17;1.90;;;1.50;;
6825;SDS011;3451;52.476;13.316;2023-05-07T14:07:43;2.10;;;1.50;;
6825;SDS011;3451;52.476;13.316;2023-05-07T14:10:10;2.40;;;1.30;;
6825;SDS011;3451;52.476;13.316;2023-05-07T14:12:37;1.93;;;1.40;;
6825;SDS011;3451;52.476;13.316;2023-05-07T14:15:04;1.97;;;1.43;;
6825;SDS011;3451;52.476;13.316;2023-05-07T14:17:30;2.10;;;1.50;;
6825;SDS011;3451;52.476;13.316;2023-05-07T14:19:57;2.60;;;1.70;;
6825;SDS011;3451;52.476;13.316;2023-05-07T14:22:23;3.03;;;1.57;;
6825;SDS011;3451;52.476;13.316;2023-05-07T14:24:50;2.13;;;1.73;;
6825;SDS011;3451;52.476;13.316;2023-05-07T14:27:36;3.20;;;1.70;;
6825;SDS011;3451;52.476;13.316;2023-05-07T14:30:02;2.90;;;1.60;;
6825;SDS011;3451;52.476;13.316;2023-05-07T14:32:29;2.97;;;1.80;;
6825;SDS011;3451;52.476;13.316;2023-05-07T14:34:55;2.43;;;1.80;;
6825;SDS011;3451;52.476;13.316;2023-05-07T14:37:21;1.90;;;1.60;;
6825;SDS011;3451;52.476;13.316;2023-05-07T14:39:48;3.00;;;1.70;;
6825;SDS011;3451;52.476;13.316;2023-05-07T14:42:16;3.17;;;1.40;;
6825;SDS011;3451;52.476;13.316;2023-05-07T14:44:42;4.40;;;1.40;;
6825;SDS011;3451;52.476;13.316;2023-05-07T14:47:10;2.43;;;1.50;;
6825;SDS011;3451;52.476;13.316;2023-05-07T14:49:37;3.27;;;1.67;;
6825;SDS011;3451;52.476;13.316;2023-05-07T14:52:04;2.17;;;1.57;;
6825;SDS011;3451;52.476;13.316;2023-05-07T14:54:33;2.47;;;1.50;;
6825;SDS011;3451;52.476;13.316;2023-05-07T14:57:04;2.00;;;1.63;;
6825;SDS011;3451;52.476;13.316;2023-05-07T14:59:30;2.20;;;1.50;;
6825;SDS011;3451;52.476;13.316;2023-05-07T15:01:57;2.60;;;1.40;;
6825;SDS011;3451;52.476;13.316;2023-05-07T15:04:23;2.17;;;1.70;;
6825;SDS011;3451;52.476;13.316;2023-05-07T15:06:50;1.90;;;1.30;;
6825;SDS011;3451;52.476;13.316;2023-05-07T15:09:16;2.67;;;1.50;;